createdAt,value
2019-02-24T00:00:51.254Z,19.80
2019-02-24T00:04:54.626Z,20.90
2019-02-24T00:08:58.352Z,19.60
2019-02-24T00:13:02.186Z,19.67
2019-02-24T00:17:05.477Z,22.97
2019-02-24T00:21:09.206Z,19.13
2019-02-24T00:25:12.806Z,19.63
2019-02-24T00:29:16.122Z,18.27
2019-02-24T00:33:19.406Z,17.17
2019-02-24T00:37:23.173Z,17.93
2019-02-24T00:41:26.474Z,17.67
2019-02-24T00:45:30.199Z,20.20
2019-02-24T00:49:33.934Z,20.33
2019-02-24T00:53:37.226Z,21.17
2019-02-24T00:57:40.514Z,18.27
2019-02-24T01:01:43.811Z,20.53
2019-02-24T01:05:47.371Z,20.13
2019-02-24T01:09:50.671Z,20.40
2019-02-24T01:13:54.052Z,20.70
2019-02-24T01:17:57.433Z,20.40
2019-02-24T01:22:01.162Z,19.90
2019-02-24T01:26:04.458Z,19.17
2019-02-24T01:30:09.558Z,21.57
2019-02-24T01:34:12.845Z,21.00
2019-02-24T01:38:16.569Z,21.83
2019-02-24T01:42:20.302Z,19.83
2019-02-24T01:46:23.926Z,20.47
2019-02-24T01:50:27.214Z,19.77
2019-02-24T01:54:30.854Z,19.83
2019-02-24T01:58:35.376Z,19.73
2019-02-24T02:02:38.917Z,21.13
2019-02-24T02:06:42.218Z,20.90
2019-02-24T02:10:45.501Z,19.20
2019-02-24T02:14:49.067Z,18.77
2019-02-24T02:18:53.070Z,18.97
2019-02-24T02:22:56.787Z,20.23
2019-02-24T02:27:00.531Z,20.10
2019-02-24T02:31:03.841Z,19.73
2019-02-24T02:35:07.154Z,18.00
2019-02-24T02:39:11.088Z,19.50
2019-02-24T02:43:15.056Z,17.87
2019-02-24T02:47:18.327Z,18.70
2019-02-24T02:51:21.642Z,19.60
2019-02-24T02:55:25.683Z,15.70
2019-02-24T02:59:28.990Z,20.07
2019-02-24T03:03:33.069Z,19.53
2019-02-24T03:07:46.722Z,18.67
2019-02-24T03:11:50.458Z,21.23
2019-02-24T03:15:53.757Z,20.60
2019-02-24T03:19:57.794Z,19.70
2019-02-24T03:24:01.567Z,18.03
2019-02-24T03:28:04.859Z,17.90
2019-02-24T03:32:08.193Z,19.10
2019-02-24T03:36:11.798Z,19.37
2019-02-24T03:40:15.667Z,17.50
2019-02-24T03:44:18.974Z,18.20
2019-02-24T03:48:22.706Z,16.30
2019-02-24T03:52:26.429Z,19.57
2019-02-24T03:56:29.806Z,19.47
2019-02-24T04:00:33.607Z,17.87
2019-02-24T04:04:37.586Z,18.00
2019-02-24T04:08:40.881Z,18.83
2019-02-24T04:12:44.467Z,16.53
2019-02-24T04:16:47.770Z,17.80
2019-02-24T04:20:51.502Z,15.00
2019-02-24T04:24:54.787Z,17.00
2019-02-24T04:28:58.092Z,18.60
2019-02-24T04:33:02.079Z,20.27
2019-02-24T04:37:05.365Z,19.30
2019-02-24T04:41:09.106Z,19.47
2019-02-24T04:45:12.902Z,18.83
2019-02-24T04:49:16.197Z,19.17
2019-02-24T04:53:19.759Z,18.10
2019-02-24T04:57:23.280Z,17.80
2019-02-24T05:01:27.011Z,18.20
2019-02-24T05:05:30.314Z,19.03
2019-02-24T05:09:33.598Z,18.43
2019-02-24T05:13:36.907Z,20.90
2019-02-24T05:17:40.632Z,21.33
2019-02-24T05:21:44.366Z,21.17
2019-02-24T05:25:47.703Z,19.17
2019-02-24T05:29:51.429Z,18.30
2019-02-24T05:33:54.763Z,20.07
2019-02-24T05:37:58.074Z,20.33
2019-02-24T05:42:01.358Z,17.77
2019-02-24T05:46:05.091Z,18.37
2019-02-24T05:50:08.702Z,18.13
2019-02-24T05:54:12.002Z,18.40
2019-02-24T05:58:16.054Z,19.63
2019-02-24T06:02:19.790Z,21.10
2019-02-24T06:06:23.077Z,18.63
2019-02-24T06:10:27.094Z,19.20
2019-02-24T06:14:30.381Z,20.27
2019-02-24T06:18:33.668Z,19.43
2019-02-24T06:22:36.947Z,19.33
2019-02-24T06:26:40.578Z,19.83
2019-02-24T06:30:43.887Z,18.87
2019-02-24T06:34:47.634Z,16.40
2019-02-24T06:38:51.310Z,16.10
2019-02-24T06:42:54.597Z,17.77
2019-02-24T06:46:58.386Z,17.50
2019-02-24T06:51:04.731Z,16.47
2019-02-24T06:55:08.097Z,22.27
2019-02-24T06:59:11.722Z,19.93
2019-02-24T07:03:15.800Z,18.33
2019-02-24T07:07:19.103Z,19.50
2019-02-24T07:11:23.105Z,18.23
2019-02-24T07:15:26.410Z,16.27
2019-02-24T07:19:29.722Z,15.43
2019-02-24T07:23:33.455Z,19.17
2019-02-24T07:27:36.754Z,17.90
2019-02-24T07:31:40.471Z,16.00
2019-02-24T07:35:43.800Z,15.00
2019-02-24T07:39:47.098Z,15.30
2019-02-24T07:43:50.386Z,17.53
2019-02-24T07:47:53.686Z,17.83
2019-02-24T07:51:56.978Z,19.33
2019-02-24T07:56:00.295Z,17.60
2019-02-24T08:00:04.019Z,19.77
2019-02-24T08:04:08.096Z,17.40
2019-02-24T08:08:16.494Z,15.90
2019-02-24T08:12:16.858Z,16.90
2019-02-24T08:16:20.578Z,14.83
2019-02-24T08:20:23.880Z,16.93
2019-02-24T08:24:29.126Z,17.43
2019-02-24T08:28:32.187Z,16.67
2019-02-24T08:32:35.562Z,16.40
2019-02-24T08:36:38.878Z,14.90
2019-02-24T08:40:42.230Z,16.80
2019-02-24T08:44:45.516Z,14.37
2019-02-24T08:48:49.126Z,13.50
2019-02-24T08:52:52.423Z,14.97
2019-02-24T08:56:55.789Z,13.37
2019-02-24T09:01:00.234Z,13.10
2019-02-24T09:05:03.612Z,13.53
2019-02-24T09:09:07.686Z,13.37
2019-02-24T09:13:11.426Z,15.60
2019-02-24T09:17:14.730Z,14.90
2019-02-24T09:21:18.091Z,13.20
2019-02-24T09:25:21.397Z,13.23
2019-02-24T09:29:25.147Z,14.33
2019-02-24T09:33:28.434Z,14.03
2019-02-24T09:37:33.006Z,13.77
2019-02-24T09:41:36.736Z,12.87
2019-02-24T09:45:40.785Z,11.70
2019-02-24T09:49:44.578Z,11.60
2019-02-24T09:53:47.863Z,12.07
2019-02-24T09:57:51.166Z,11.30
2019-02-24T10:01:54.906Z,12.20
2019-02-24T10:05:58.718Z,12.57
2019-02-24T10:10:02.018Z,12.57
2019-02-24T10:14:05.299Z,11.93
2019-02-24T10:18:08.605Z,12.17
2019-02-24T10:22:12.343Z,11.33
2019-02-24T10:26:16.358Z,11.70
2019-02-24T10:30:19.662Z,11.90
2019-02-24T10:34:22.946Z,10.67
2019-02-24T10:38:26.350Z,10.50
2019-02-24T10:42:29.650Z,10.87
2019-02-24T10:46:32.930Z,10.70
2019-02-24T10:50:36.702Z,10.90
2019-02-24T10:54:40.254Z,11.20
2019-02-24T10:58:44.002Z,10.93
2019-02-24T11:02:48.039Z,11.47
2019-02-24T11:06:51.758Z,10.17
2019-02-24T11:10:55.068Z,10.50
2019-02-24T11:14:59.074Z,10.50
2019-02-24T11:19:02.804Z,10.57
2019-02-24T11:23:06.178Z,11.10
2019-02-24T11:27:09.464Z,9.90
2019-02-24T11:31:12.770Z,10.30
2019-02-24T11:35:16.331Z,11.30
2019-02-24T11:39:19.644Z,11.33
2019-02-24T11:43:23.382Z,10.30
2019-02-24T11:47:26.954Z,9.30
2019-02-24T11:51:30.988Z,11.00
2019-02-24T11:55:34.307Z,10.67
2019-02-24T11:59:37.921Z,10.27
2019-02-24T12:03:41.554Z,10.63
2019-02-24T12:07:44.834Z,9.83
2019-02-24T12:11:48.582Z,10.00
2019-02-24T12:15:51.954Z,9.00
2019-02-24T12:19:55.234Z,9.93
2019-02-24T12:23:59.483Z,10.40
2019-02-24T12:28:02.762Z,8.40
2019-02-24T12:32:06.572Z,9.37
2019-02-24T12:36:10.311Z,8.70
2019-02-24T12:40:13.650Z,9.00
2019-02-24T12:44:16.950Z,9.03
2019-02-24T12:48:20.250Z,10.77
2019-02-24T12:52:23.559Z,8.67
2019-02-24T12:56:26.858Z,9.93
2019-02-24T13:00:30.608Z,8.70
2019-02-24T13:04:33.893Z,9.07
2019-02-24T13:08:38.031Z,9.97
2019-02-24T13:12:41.867Z,9.10
2019-02-24T13:16:45.592Z,9.10
2019-02-24T13:20:48.893Z,9.00
2019-02-24T13:24:52.636Z,8.80
2019-02-24T13:28:55.910Z,8.50
2019-02-24T13:32:59.228Z,9.27
2019-02-24T13:37:02.542Z,9.67
2019-02-24T13:41:06.354Z,8.77
2019-02-24T13:45:10.890Z,9.37
2019-02-24T13:49:14.166Z,9.10
2019-02-24T13:53:18.291Z,9.13
2019-02-24T13:57:22.022Z,7.83
2019-02-24T14:01:26.078Z,9.20
2019-02-24T14:05:29.820Z,8.97
2019-02-24T14:09:33.106Z,9.30
2019-02-24T14:13:36.850Z,8.47
2019-02-24T14:17:40.470Z,10.77
2019-02-24T14:21:44.218Z,8.53
2019-02-24T14:25:47.526Z,10.10
2019-02-24T14:29:50.845Z,8.90
2019-02-24T14:33:54.133Z,9.07
2019-02-24T14:37:57.886Z,8.40
2019-02-24T14:42:01.646Z,7.60
2019-02-24T14:46:05.063Z,8.00
2019-02-24T14:50:08.430Z,7.30
2019-02-24T14:54:11.975Z,7.37
2019-02-24T14:58:15.270Z,8.07
2019-02-24T15:02:19.060Z,8.23
2019-02-24T15:06:22.369Z,8.90
2019-02-24T15:10:25.748Z,8.33
2019-02-24T15:14:29.046Z,7.13
2019-02-24T15:18:33.131Z,7.77
2019-02-24T15:22:36.870Z,9.77
2019-02-24T15:26:40.736Z,7.60
2019-02-24T15:30:44.027Z,7.70
2019-02-24T15:34:47.330Z,7.63
2019-02-24T15:38:50.619Z,7.80
2019-02-24T15:42:53.919Z,7.90
2019-02-24T15:46:58.398Z,8.87
2019-02-24T15:51:02.114Z,8.30
2019-02-24T15:55:05.462Z,9.30
2019-02-24T15:59:09.455Z,8.63
2019-02-24T16:03:12.742Z,9.90
2019-02-24T16:07:16.042Z,7.57
2019-02-24T16:11:19.323Z,8.90
2019-02-24T16:15:23.162Z,9.20
2019-02-24T16:19:26.758Z,10.03
2019-02-24T16:23:30.482Z,10.50
2019-02-24T16:27:33.815Z,11.00
2019-02-24T16:31:38.239Z,9.87
2019-02-24T16:35:41.518Z,8.37
2019-02-24T16:39:44.833Z,7.30
2019-02-24T16:43:48.619Z,8.60
2019-02-24T16:47:51.955Z,9.10
2019-02-24T16:51:55.720Z,12.67
2019-02-24T16:55:59.005Z,39.23
2019-02-24T17:00:02.562Z,8.90
2019-02-24T17:04:06.278Z,9.97
2019-02-24T17:08:10.210Z,8.60
2019-02-24T17:12:13.511Z,14.50
2019-02-24T17:16:16.814Z,16.37
2019-02-24T17:20:20.583Z,10.67
2019-02-24T17:24:23.882Z,10.90
2019-02-24T17:28:27.164Z,11.00
2019-02-24T17:32:31.067Z,9.50
2019-02-24T17:36:34.354Z,10.60
2019-02-24T17:40:38.094Z,10.30
2019-02-24T17:44:41.506Z,10.20
2019-02-24T17:48:44.794Z,9.57
2019-02-24T17:52:48.094Z,11.37
2019-02-24T17:56:51.382Z,11.37
2019-02-24T18:01:02.558Z,10.70
2019-02-24T18:05:06.543Z,10.90
2019-02-24T18:09:10.111Z,10.73
2019-02-24T18:13:13.424Z,11.70
2019-02-24T18:17:17.159Z,9.03
2019-02-24T18:21:20.442Z,10.17
2019-02-24T18:25:24.186Z,9.60
2019-02-24T18:29:27.790Z,11.13
2019-02-24T18:33:31.087Z,11.40
2019-02-24T18:37:34.391Z,11.67
2019-02-24T18:41:37.690Z,12.07
2019-02-24T18:45:41.042Z,12.50
2019-02-24T18:49:44.450Z,11.07
2019-02-24T18:53:48.003Z,12.63
2019-02-24T18:57:51.307Z,12.93
2019-02-24T19:01:54.682Z,11.90
2019-02-24T19:05:57.969Z,12.27
2019-02-24T19:10:01.278Z,11.87
2019-02-24T19:14:04.641Z,12.10
2019-02-24T19:18:08.715Z,13.77
2019-02-24T19:22:12.338Z,13.07
2019-02-24T19:26:15.638Z,10.90
2019-02-24T19:30:19.026Z,11.80
2019-02-24T19:34:22.770Z,9.20
2019-02-24T19:38:26.771Z,9.13
2019-02-24T19:42:30.503Z,10.63
2019-02-24T19:46:33.815Z,10.00
2019-02-24T19:50:37.580Z,10.60
2019-02-24T19:54:44.848Z,11.60
2019-02-24T19:58:49.098Z,12.03
2019-02-24T20:02:53.846Z,13.47
2019-02-24T20:06:58.663Z,13.00
2019-02-24T20:11:01.955Z,14.70
2019-02-24T20:15:06.542Z,17.40
2019-02-24T20:19:10.618Z,17.23
2019-02-24T20:23:14.363Z,18.70
2019-02-24T20:27:17.675Z,16.40
2019-02-24T20:31:21.429Z,13.60
2019-02-24T20:35:24.806Z,13.03
2019-02-24T20:39:28.441Z,16.07
2019-02-24T20:43:32.464Z,18.10
2019-02-24T20:47:36.009Z,22.63
2019-02-24T20:51:40.052Z,27.50
2019-02-24T20:55:43.359Z,23.70
2019-02-24T20:59:46.642Z,20.70
2019-02-24T21:03:50.367Z,23.63
2019-02-24T21:07:53.737Z,18.73
2019-02-24T21:11:57.478Z,17.57
2019-02-24T21:16:00.778Z,15.80
2019-02-24T21:20:04.816Z,17.90
2019-02-24T21:24:08.118Z,17.60
2019-02-24T21:28:11.394Z,17.47
2019-02-24T21:32:14.691Z,18.60
2019-02-24T21:36:17.990Z,16.90
2019-02-24T21:40:23.339Z,15.37
2019-02-24T21:44:26.734Z,15.93
2019-02-24T21:48:30.473Z,16.10
2019-02-24T21:52:33.786Z,15.90
2019-02-24T21:56:37.094Z,17.67
2019-02-24T22:00:40.966Z,17.70
2019-02-24T22:04:44.266Z,15.70
2019-02-24T22:08:48.002Z,16.30
2019-02-24T22:12:51.614Z,16.80
2019-02-24T22:16:54.919Z,17.23
2019-02-24T22:20:58.222Z,17.10
2019-02-24T22:25:01.846Z,16.40
2019-02-24T22:29:05.157Z,17.40
2019-02-24T22:33:08.890Z,17.57
2019-02-24T22:37:12.611Z,17.63
2019-02-24T22:41:15.914Z,20.47
2019-02-24T22:45:19.934Z,19.87
2019-02-24T22:49:23.674Z,16.67
2019-02-24T22:53:26.998Z,16.80
2019-02-24T22:57:30.294Z,21.80
2019-02-24T23:01:37.007Z,24.80
2019-02-24T23:05:40.378Z,25.17
2019-02-24T23:09:44.434Z,20.50
2019-02-24T23:13:48.154Z,16.93
2019-02-24T23:17:51.455Z,16.43
2019-02-24T23:21:54.755Z,18.77
2019-02-24T23:25:58.046Z,17.17
2019-02-24T23:30:01.790Z,19.00
2019-02-24T23:34:05.601Z,25.97
2019-02-24T23:38:08.938Z,24.60
2019-02-24T23:42:12.358Z,22.10
2019-02-24T23:46:15.882Z,22.27
2019-02-24T23:50:19.686Z,19.63
2019-02-24T23:54:23.051Z,21.67
2019-02-24T23:58:26.769Z,19.37
